NCAR-RAP Real-Time Weather Data

Output produced by METARs form (18 August 2018  01:02 UTC)
found at http://weather.rap.ucar.edu/surface/
 
RJOR 180000Z VRB03KT 9999 FEW030 BKN/// 24/13 Q1013
RJOR 172300Z 14007KT 9999 FEW030 BKN/// 21/14 Q1013
RJOR 172200Z 13009KT 9999 FEW025 BKN/// 19/14 Q1013
RJOR 172130Z 12007KT 9999 FEW025 BKN/// 18/14 Q1013
RJOR 172110Z 12008KT 9999 FEW025 BKN/// 17/14 Q1013 RMK 1CU025 A2991
RJOR 171200Z 07011KT 9999 FEW030 23/15 Q1012
RJOR 171100Z 05016KT 9999 FEW035 24/15 Q1012
RJOR 171000Z 05018KT 9999 FEW035 24/15 Q1012
RJOR 170900Z 04019KT 9999 FEW040 24/15 Q1011
RJOR 170800Z 04015KT 9999 FEW040 25/15 Q1011
RJOR 170700Z 04016KT 9999 FEW040 26/12 Q1012
RJOR 170600Z 04017KT 9999 FEW040 SCT/// 26/14 Q1012
RJOR 170500Z 04019KT 9999 FEW035 SCT040 BKN/// 26/14 Q1012
RJOR 170400Z 04019KT 9999 FEW035 SCT040 BKN/// 26/14 Q1012
RJOR 170300Z 04020KT 9999 FEW035 SCT040 BKN/// 27/15 Q1013
RJOR 170200Z 04019KT 9999 FEW035 SCT040 BKN/// 27/16 Q1013
RJOR 170100Z 04018KT 9999 FEW035 BKN040 26/16 Q1013
RJOR 170000Z 04016KT 9999 FEW030 BKN035 27/16 Q1013
RJOR 162300Z 04016KT 9999 FEW030 SCT035 26/15 Q1012
RJOR 162200Z 03017KT 9999 FEW025 SCT035 24/15 Q1012
RJOR 162130Z 04017KT 9999 FEW020 SCT030 24/16 Q1012
RJOR 162110Z 04019KT 9999 FEW020 SCT030 24/16 Q1012 RMK 1CU020 3CU030 A2990
RJOR 161200Z 02021KT 9999 FEW015 SCT040 BKN060 26/20 Q1012
RJOR 161100Z 01021KT 9999 FEW015 SCT040 BKN060 26/21 Q1011
RJOR 161000Z 01019KT 9999 FEW015 SCT030 BKN045 26/22 Q1010
RJOR 160900Z 36015KT 9999 -SHRA FEW015 SCT025 BKN035 26/22 Q1009
RJOR 160800Z 35016KT 9999 FEW015 SCT035 BKN070 26/22 Q1009
RJOR 160700Z 34021KT 9999 FEW015 SCT030 BKN070 26/22 Q1008
RJOR 160625Z 31019KT 9999 R10/0650VP1800U -SHRA FEW015 SCT025 BKN035 26/23 Q1008 RMK 1CU015 3CU025 5CU035 A2977
RJOR 160623Z 31018KT 9999 R10/0550VP1800U -SHRA FEW015 SCT025 BKN035 26/23 Q1008 RMK 1CU015 3CU025 5CU035 A2977
RJOR 160621Z 31018KT 8000 R10/0500VP1800U -SHRA FEW015 SCT025 BKN035 26/23 Q1008 RMK 1CU015 3CU025 5CU035 A2977
RJOR 160620Z 30018KT 5000 R10/0400VP1800U -SHRA BR FEW015 SCT025 BKN035 26/23 Q1008 RMK 1CU015 3CU025 5CU035 A2977 9999NW-N
RJOR 160618Z 30019KT 4000 R10/0400VP1800U -SHRA BR FEW015 SCT025 BKN035 26/23 Q1008 RMK 1CU015 3CU025 5CU035 A2977
RJOR 160615Z 30020KT 3000 R10/0400VP1800D SHRA BR FEW015 SCT025 BKN035 26/23 Q1008 RMK 1CU015 3CU025 5CU035 A2977
RJOR 160613Z 30021KT 3000 R10/0400VP1800D SHRA BR FEW015 SCT025 BKN035 26/22 Q1008 RMK 1CU015 3CU025 5CU035 A2977
RJOR 160611Z 31021KT 2000 R10/0400VP1800D SHRA BR FEW015 SCT025 BKN035 26/22 Q1008 RMK 1CU015 3CU025 5CU035 A2977
RJOR 160610Z 30021KT 2000 R10/0450VP1800D SHRA BR FEW015 SCT025 BKN035 26/22 Q1008 RMK 1CU015 3CU025 5CU035 A2977
RJOR 160609Z 30021KT 3000 R10/0750VP1800D SHRA BR FEW015 SCT025 BKN035 27/22 Q1008 RMK 1CU015 3CU025 5CU035 A2977
RJOR 160600Z 26021KT 9999 FEW020 SCT035 BKN070 29/23 Q1007
RJOR 160500Z 23015KT 9999 FEW020 SCT045 BKN/// 30/23 Q1007
RJOR 160400Z 25007KT 9999 -SHRA FEW008 SCT040 BKN050 27/25 Q1007
RJOR 160300Z 20005KT 9999 -SHRA FEW025 SCT070 BKN100 28/24 Q1006
RJOR 160239Z 26005KT 230V290 9999 -SHRA FEW020 SCT030 BKN050 27/25 Q1007 RMK 1CU020 3CU030 5SC050 A2975
RJOR 160228Z 28006KT 9999 SHRA FEW020 SCT030 BKN050 27/24 Q1008 RMK 1CU020 3CU030 5SC050 A2977
RJOR 160200Z 31004KT 9999 -SHRA FEW035 SCT050 BKN070 29/22 Q1008
RJOR 160100Z 18003KT 140V230 9999 -SHRA FEW035 SCT070 BKN120 30/22 Q1007
RJOR 160000Z 14005KT 9999 FEW035 SCT070 BKN100 29/23 Q1007
RJOR 152300Z 15004KT 9999 -SHRA FEW035 SCT050 BKN070 28/22 Q1007
RJOR 152200Z 18005KT 9999 FEW040 SCT100 BKN150 28/22 Q1007
RJOR 152130Z 18003KT 150V210 9999 FEW040 SCT100 BKN150 28/22 Q1007
RJOR 152110Z 17005KT 9999 -SHRA FEW025 SCT090 BKN120 28/22 Q1007 RMK 1CU025 3AC090 5AC120 A2974